Time;durP1;ratioP1;P1;durP2;ratioP2;P2;SDS_P1;SDS_P2;PMS_P1;PMS_P2;Temp;Humidity;BMP_temperature;BMP_pressure;BME280_temperature;BME280_humidity;BME280_pressure;Samples;Min_cycle;Max_cycle;Signal;HPM_P1;HPM_P2
2024/03/23 00:02:06;;;;;;;116.57;109.90;;;;;;;;;;5056582;28;20425;-89
2024/03/23 00:04:34;;;;;;;127.13;119.27;;;;;;;;;;5056908;28;20473;-88
2024/03/23 00:07:03;;;;;;;130.97;122.67;;;;;;;;;;5056585;28;20445;-88
2024/03/23 00:09:31;;;;;;;128.30;120.50;;;;;;;;;;5057146;28;20467;-88
2024/03/23 00:11:59;;;;;;;124.60;117.03;;;;;;;;;;5057789;28;20491;-88
2024/03/23 00:14:28;;;;;;;116.70;109.73;;;;;;;;;;5058054;28;20521;-88
2024/03/23 00:16:56;;;;;;;117.50;110.80;;;;;;;;;;5057347;28;20532;-89
2024/03/23 00:19:25;;;;;;;122.87;115.47;;;;;;;;;;5037934;28;20465;-88
2024/03/23 00:21:52;;;;;;;127.37;119.47;;;;;;;;;;5037457;28;20480;-89
2024/03/23 00:24:21;;;;;;;128.37;120.63;;;;;;;;;;5037717;28;20782;-87
2024/03/23 00:26:49;;;;;;;128.03;119.43;;;;;;;;;;5036547;28;20462;-88
2024/03/23 00:29:19;;;;;;;124.53;116.70;;;;;;;;;;5051782;28;20898;-89
2024/03/23 00:31:47;;;;;;;120.13;113.20;;;;;;;;;;5040361;28;20481;-88
2024/03/23 00:34:15;;;;;;;131.07;122.37;;;;;;;;;;5040876;28;20487;-88
2024/03/23 00:36:43;;;;;;;121.27;113.70;;;;;;;;;;5045383;28;20451;-88
2024/03/23 00:39:13;;;;;;;128.23;118.00;;;;;;;;;;5060726;28;20527;-88
2024/03/23 00:41:41;;;;;;;129.23;120.90;;;;;;;;;;5061402;28;20461;-88
2024/03/23 00:44:10;;;;;;;130.30;122.20;;;;;;;;;;5060336;28;20457;-88
2024/03/23 00:46:38;;;;;;;116.50;108.57;;;;;;;;;;5059835;28;20537;-88
2024/03/23 00:49:07;;;;;;;118.40;110.93;;;;;;;;;;5061222;28;20467;-89
2024/03/23 00:51:35;;;;;;;117.20;109.70;;;;;;;;;;5060707;28;20453;-89
2024/03/23 00:54:03;;;;;;;117.90;110.30;;;;;;;;;;5060491;28;20961;-88
2024/03/23 00:56:29;;;;;;;118.10;110.47;;;;;;;;;;5060195;28;20409;-88
2024/03/23 00:58:56;;;;;;;121.13;113.13;;;;;;;;;;5060269;28;20458;-89
2024/03/23 01:01:22;;;;;;;118.13;110.30;;;;;;;;;;5059347;28;20492;-88
2024/03/23 01:03:50;;;;;;;85.67;78.60;;;;;;;;;;5060185;28;20445;-88
2024/03/23 01:06:16;;;;;;;80.83;75.03;;;;;;;;;;5059248;28;20838;-88
2024/03/23 01:08:43;;;;;;;80.90;75.20;;;;;;;;;;5060039;28;20413;-88
2024/03/23 01:11:11;;;;;;;78.67;72.50;;;;;;;;;;5059644;28;20482;-88
2024/03/23 01:13:39;;;;;;;76.33;70.63;;;;;;;;;;5060248;28;20852;-89
2024/03/23 01:16:05;;;;;;;79.87;73.60;;;;;;;;;;5059982;28;20439;-89
2024/03/23 01:18:32;;;;;;;76.27;70.43;;;;;;;;;;5060084;28;20493;-88
2024/03/23 01:20:58;;;;;;;74.33;69.60;;;;;;;;;;5059869;28;21004;-88
2024/03/23 01:23:25;;;;;;;69.33;64.37;;;;;;;;;;5059602;28;20449;-89
2024/03/23 01:25:53;;;;;;;107.50;101.43;;;;;;;;;;5059172;28;20450;-89
2024/03/23 01:28:21;;;;;;;105.70;98.17;;;;;;;;;;5049707;28;20450;-88
2024/03/23 01:30:47;;;;;;;68.87;63.47;;;;;;;;;;5052535;28;20505;-88
2024/03/23 01:33:14;;;;;;;73.97;68.30;;;;;;;;;;5059336;28;20979;-88
2024/03/23 01:35:40;;;;;;;74.20;68.30;;;;;;;;;;5059327;28;20442;-91
2024/03/23 01:38:07;;;;;;;76.07;68.97;;;;;;;;;;5058834;28;20803;-88
2024/03/23 01:40:33;;;;;;;78.67;73.07;;;;;;;;;;5059127;28;20510;-88
2024/03/23 01:43:04;;;;;;;75.37;69.73;;;;;;;;;;5057932;28;20456;-88
2024/03/23 01:45:32;;;;;;;74.70;69.00;;;;;;;;;;5059399;28;20482;-88
2024/03/23 01:47:59;;;;;;;68.40;63.53;;;;;;;;;;5059005;28;20485;-89
2024/03/23 01:50:26;;;;;;;67.43;62.67;;;;;;;;;;5058647;28;20431;-88
2024/03/23 01:52:53;;;;;;;70.80;65.20;;;;;;;;;;5059675;28;20481;-88
2024/03/23 01:55:19;;;;;;;62.83;58.43;;;;;;;;;;5059157;28;20432;-88
2024/03/23 01:57:46;;;;;;;94.83;88.53;;;;;;;;;;5057072;28;20478;-88
2024/03/23 02:00:12;;;;;;;95.13;88.10;;;;;;;;;;5047863;28;20888;-88
2024/03/23 02:02:44;;;;;;;90.30;84.67;;;;;;;;;;5059170;28;20453;-89
2024/03/23 02:05:11;;;;;;;90.17;84.47;;;;;;;;;;5059057;28;20483;-89
2024/03/23 02:07:39;;;;;;;90.47;84.77;;;;;;;;;;5057986;28;20433;-88
2024/03/23 02:10:06;;;;;;;87.10;80.90;;;;;;;;;;5049483;28;20474;-88
2024/03/23 02:12:33;;;;;;;86.87;79.83;;;;;;;;;;5038254;28;20494;-88
2024/03/23 02:14:59;;;;;;;98.50;92.00;;;;;;;;;;5038868;28;20871;-88
2024/03/23 02:17:26;;;;;;;103.93;96.60;;;;;;;;;;5037598;28;20960;-88
2024/03/23 02:19:53;;;;;;;88.30;82.30;;;;;;;;;;5037427;28;20478;-88
2024/03/23 02:22:20;;;;;;;72.33;66.70;;;;;;;;;;5050777;28;20445;-88
2024/03/23 02:24:48;;;;;;;67.43;61.93;;;;;;;;;;5057804;28;21002;-89
2024/03/23 02:27:15;;;;;;;66.33;60.17;;;;;;;;;;5057014;28;20514;-89
2024/03/23 02:29:41;;;;;;;69.63;64.20;;;;;;;;;;5043596;28;20523;-89
2024/03/23 02:32:09;;;;;;;68.10;62.80;;;;;;;;;;5057558;28;20568;-89
2024/03/23 02:34:35;;;;;;;64.53;59.13;;;;;;;;;;5058765;28;20465;-89
2024/03/23 02:37:02;;;;;;;73.23;67.40;;;;;;;;;;5057785;28;20453;-88
2024/03/23 02:39:28;;;;;;;68.50;62.80;;;;;;;;;;5057977;28;20470;-89
2024/03/23 02:41:57;;;;;;;91.30;86.00;;;;;;;;;;5057978;28;20440;-90
2024/03/23 02:44:23;;;;;;;90.10;84.60;;;;;;;;;;5058458;28;20419;-88
2024/03/23 02:46:50;;;;;;;64.13;58.67;;;;;;;;;;5058592;28;20449;-89
2024/03/23 02:49:16;;;;;;;64.53;59.63;;;;;;;;;;5057869;28;20428;-89
2024/03/23 02:51:45;;;;;;;61.07;57.20;;;;;;;;;;5058584;28;20435;-88
2024/03/23 02:54:11;;;;;;;63.43;59.23;;;;;;;;;;5057656;28;20521;-89
2024/03/23 02:56:38;;;;;;;65.13;60.60;;;;;;;;;;5057425;28;20444;-89
2024/03/23 02:59:05;;;;;;;62.47;58.57;;;;;;;;;;5057422;28;20468;-89
2024/03/23 03:01:32;;;;;;;62.17;57.73;;;;;;;;;;5056291;28;20473;-89
2024/03/23 03:03:58;;;;;;;61.57;57.50;;;;;;;;;;5039382;28;21014;-88
2024/03/23 03:06:26;;;;;;;58.33;54.20;;;;;;;;;;5036165;28;20481;-89
2024/03/23 03:08:52;;;;;;;61.90;58.20;;;;;;;;;;5036496;28;20465;-89
2024/03/23 03:11:19;;;;;;;59.57;55.83;;;;;;;;;;5036137;28;20459;-89
2024/03/23 03:13:45;;;;;;;61.67;57.67;;;;;;;;;;5035581;28;20488;-90
2024/03/23 03:16:14;;;;;;;59.10;54.67;;;;;;;;;;5035419;28;20424;-87
2024/03/23 03:18:40;;;;;;;86.90;81.63;;;;;;;;;;5036326;28;20528;-91
2024/03/23 03:21:10;;;;;;;82.03;77.40;;;;;;;;;;5036583;28;20540;-89
2024/03/23 03:23:37;;;;;;;82.23;76.83;;;;;;;;;;5036769;28;20439;-88
2024/03/23 03:26:04;;;;;;;85.73;80.53;;;;;;;;;;5036284;28;20491;-88
2024/03/23 03:28:30;;;;;;;80.60;75.97;;;;;;;;;;5035870;28;20959;-89
2024/03/23 03:30:57;;;;;;;82.37;77.67;;;;;;;;;;5036915;28;20475;-89
2024/03/23 03:33:25;;;;;;;81.03;76.60;;;;;;;;;;5036444;28;20485;-89
2024/03/23 03:35:52;;;;;;;55.90;51.17;;;;;;;;;;5035916;28;20414;-89
2024/03/23 03:38:19;;;;;;;53.43;49.80;;;;;;;;;;5036484;28;20442;-88
2024/03/23 03:40:46;;;;;;;81.33;75.70;;;;;;;;;;5036069;28;20448;-89
2024/03/23 03:43:12;;;;;;;76.00;71.47;;;;;;;;;;5036576;28;20422;-89
2024/03/23 03:45:39;;;;;;;77.17;71.70;;;;;;;;;;5035680;28;20447;-89
2024/03/23 03:48:05;;;;;;;51.30;47.13;;;;;;;;;;5035933;28;20444;-89
2024/03/23 03:50:34;;;;;;;49.50;46.00;;;;;;;;;;5035826;28;20815;-89
2024/03/23 03:53:00;;;;;;;50.47;46.87;;;;;;;;;;5035830;28;20467;-89
2024/03/23 03:55:27;;;;;;;49.87;45.90;;;;;;;;;;5035701;28;20443;-89
2024/03/23 03:57:53;;;;;;;48.53;45.00;;;;;;;;;;5041463;28;20443;-89
2024/03/23 04:00:20;;;;;;;47.13;43.67;;;;;;;;;;5055326;28;20492;-89
2024/03/23 04:02:47;;;;;;;47.93;44.73;;;;;;;;;;5055179;28;20421;-90
2024/03/23 04:05:14;;;;;;;49.17;45.60;;;;;;;;;;5056322;28;20416;-89
2024/03/23 04:07:41;;;;;;;43.43;40.63;;;;;;;;;;5058951;28;20789;-89
2024/03/23 04:10:09;;;;;;;44.43;40.93;;;;;;;;;;5059744;28;20499;-89
2024/03/23 04:12:35;;;;;;;47.77;44.00;;;;;;;;;;5059547;28;20510;-89
2024/03/23 04:15:03;;;;;;;44.27;41.60;;;;;;;;;;5059157;28;20411;-88
2024/03/23 04:17:31;;;;;;;41.77;38.87;;;;;;;;;;5059114;28;20417;-89
2024/03/23 04:19:58;;;;;;;41.53;38.53;;;;;;;;;;5059834;28;20461;-89
2024/03/23 04:22:26;;;;;;;43.40;40.63;;;;;;;;;;5059731;28;20424;-89
2024/03/23 04:24:54;;;;;;;44.37;41.33;;;;;;;;;;5060253;28;20462;-88
2024/03/23 04:27:20;;;;;;;41.67;39.07;;;;;;;;;;5057967;28;20456;-89
2024/03/23 04:29:49;;;;;;;44.83;41.83;;;;;;;;;;5054153;28;20489;-89
2024/03/23 04:32:15;;;;;;;43.50;40.43;;;;;;;;;;5055538;28;20521;-89
2024/03/23 04:34:43;;;;;;;42.97;40.17;;;;;;;;;;5039808;28;20421;-89
2024/03/23 04:37:10;;;;;;;44.00;41.40;;;;;;;;;;5039402;28;20516;-88
2024/03/23 04:39:37;;;;;;;40.70;37.80;;;;;;;;;;5039166;28;20821;-89
2024/03/23 04:42:06;;;;;;;45.17;41.80;;;;;;;;;;5039107;28;20427;-89
2024/03/23 04:44:33;;;;;;;44.03;40.83;;;;;;;;;;5038756;28;20477;-89
2024/03/23 04:47:01;;;;;;;43.30;40.40;;;;;;;;;;5038869;28;20841;-88
2024/03/23 04:49:36;;;;;;;41.07;38.30;;;;;;;;;;5038659;28;20473;-89
2024/03/23 04:52:03;;;;;;;39.20;36.20;;;;;;;;;;5039316;28;20414;-89
2024/03/23 04:54:32;;;;;;;40.00;36.90;;;;;;;;;;5038667;28;20479;-89
2024/03/23 04:56:58;;;;;;;38.93;35.87;;;;;;;;;;5039052;28;20447;-88
2024/03/23 04:59:27;;;;;;;41.70;38.47;;;;;;;;;;5037875;28;20481;-89
2024/03/23 05:01:54;;;;;;;41.80;38.43;;;;;;;;;;5038892;28;20485;-89
2024/03/23 05:04:21;;;;;;;42.67;39.10;;;;;;;;;;5038325;28;20519;-89
2024/03/23 05:06:47;;;;;;;44.63;41.13;;;;;;;;;;5037693;28;20412;-89
2024/03/23 05:09:14;;;;;;;46.00;42.60;;;;;;;;;;5038906;28;20457;-89
2024/03/23 05:11:41;;;;;;;45.03;41.87;;;;;;;;;;5038888;28;20441;-89
2024/03/23 05:14:08;;;;;;;47.67;44.10;;;;;;;;;;5038164;28;20947;-89
2024/03/23 05:16:36;;;;;;;46.80;43.80;;;;;;;;;;5038785;28;20513;-89
2024/03/23 05:19:03;;;;;;;49.07;45.80;;;;;;;;;;5039175;28;20476;-89
2024/03/23 05:21:29;;;;;;;51.43;47.70;;;;;;;;;;5039407;28;20913;-81
2024/03/23 05:23:56;;;;;;;53.93;49.73;;;;;;;;;;5039995;28;20428;-79
2024/03/23 05:26:22;;;;;;;55.57;51.50;;;;;;;;;;5039742;28;20433;-79
2024/03/23 05:28:49;;;;;;;55.57;51.07;;;;;;;;;;5052150;28;20428;-81
2024/03/23 05:31:23;;;;;;;56.13;51.70;;;;;;;;;;5059326;28;20445;-81
2024/03/23 05:33:51;;;;;;;53.33;49.00;;;;;;;;;;5059291;28;20222;-80
2024/03/23 05:36:18;;;;;;;50.77;46.70;;;;;;;;;;5058840;28;20428;-79
2024/03/23 05:38:45;;;;;;;53.43;49.47;;;;;;;;;;5059332;28;20525;-80
2024/03/23 05:41:11;;;;;;;52.47;49.05;;;;;;;;;;5059009;28;20440;-80
2024/03/23 05:43:38;;;;;;;55.00;50.73;;;;;;;;;;5058934;28;20208;-80
2024/03/23 05:46:05;;;;;;;49.03;45.60;;;;;;;;;;5059345;28;20454;-80
2024/03/23 05:48:32;;;;;;;51.33;47.27;;;;;;;;;;5058282;28;20420;-81
2024/03/23 05:51:00;;;;;;;48.23;44.57;;;;;;;;;;5058946;28;20447;-81
2024/03/23 05:53:28;;;;;;;48.70;45.00;;;;;;;;;;5058939;28;20481;-81
2024/03/23 05:56:03;;;;;;;46.60;42.90;;;;;;;;;;5058229;28;20905;-80
2024/03/23 05:58:31;;;;;;;44.58;41.35;;;;;;;;;;5052306;28;20525;-80
2024/03/23 06:01:01;;;;;;;42.70;39.20;;;;;;;;;;5057482;28;20226;-81
2024/03/23 06:03:28;;;;;;;41.60;38.67;;;;;;;;;;5042807;28;20435;-81
2024/03/23 06:05:54;;;;;;;44.20;40.57;;;;;;;;;;5037957;28;20459;-81
2024/03/23 06:08:24;;;;;;;47.90;43.90;;;;;;;;;;5038699;28;20449;-81
2024/03/23 06:10:50;;;;;;;46.47;42.47;;;;;;;;;;5038314;28;20483;-79
2024/03/23 06:13:17;;;;;;;45.63;42.17;;;;;;;;;;5038952;28;20561;-79
2024/03/23 06:15:43;;;;;;;46.47;42.80;;;;;;;;;;5044162;28;20499;-80
2024/03/23 06:18:11;;;;;;;48.30;44.47;;;;;;;;;;5057587;28;20218;-80
2024/03/23 06:20:37;;;;;;;45.90;42.23;;;;;;;;;;5057542;28;20480;-79
2024/03/23 06:23:04;;;;;;;46.30;43.17;;;;;;;;;;5057919;28;20474;-80
2024/03/23 06:25:32;;;;;;;43.93;40.43;;;;;;;;;;5057991;28;20454;-81
2024/03/23 06:28:01;;;;;;;43.40;39.70;;;;;;;;;;5055722;28;20519;-80
2024/03/23 06:30:29;;;;;;;38.13;34.90;;;;;;;;;;5057303;28;20506;-79
2024/03/23 06:32:56;;;;;;;40.53;37.30;;;;;;;;;;5057454;28;20444;-79
2024/03/23 06:35:22;;;;;;;42.03;38.70;;;;;;;;;;5039101;28;20465;-79
2024/03/23 06:37:49;;;;;;;40.47;37.20;;;;;;;;;;5037260;28;20468;-79
2024/03/23 06:40:15;;;;;;;41.83;38.37;;;;;;;;;;5037712;28;20449;-80
2024/03/23 06:42:43;;;;;;;38.00;34.83;;;;;;;;;;5037457;28;20432;-80
2024/03/23 06:45:10;;;;;;;37.37;34.33;;;;;;;;;;5037316;28;20978;-81
2024/03/23 06:47:37;;;;;;;40.70;36.60;;;;;;;;;;5036476;28;20920;-79
2024/03/23 06:50:03;;;;;;;42.85;39.20;;;;;;;;;;5037224;28;20484;-80
2024/03/23 06:52:30;;;;;;;42.37;38.43;;;;;;;;;;5037588;28;20205;-81
2024/03/23 06:54:57;;;;;;;37.60;34.50;;;;;;;;;;5037823;28;20494;-80
2024/03/23 06:57:24;;;;;;;37.70;34.00;;;;;;;;;;5056798;28;20485;-79
2024/03/23 06:59:51;;;;;;;39.03;35.65;;;;;;;;;;5057064;28;20466;-80
2024/03/23 07:02:19;;;;;;;39.97;35.87;;;;;;;;;;5057220;28;20258;-81
2024/03/23 07:04:45;;;;;;;51.83;46.33;;;;;;;;;;5056767;28;20457;-79
2024/03/23 07:07:12;;;;;;;43.57;39.27;;;;;;;;;;5056801;28;20446;-82
2024/03/23 07:09:38;;;;;;;44.20;38.33;;;;;;;;;;5056697;28;20473;-79
2024/03/23 07:12:05;;;;;;;44.47;40.10;;;;;;;;;;5056786;28;20968;-80
2024/03/23 07:14:31;;;;;;;51.83;46.47;;;;;;;;;;5039274;28;20495;-80
2024/03/23 07:17:00;;;;;;;42.00;38.07;;;;;;;;;;5036695;28;20501;-80
2024/03/23 07:19:26;;;;;;;82.00;68.07;;;;;;;;;;5036855;28;20476;-80
2024/03/23 07:21:53;;;;;;;42.80;38.60;;;;;;;;;;5036745;28;20440;-79
2024/03/23 07:24:19;;;;;;;51.30;45.93;;;;;;;;;;5037082;28;20786;-79
2024/03/23 07:26:47;;;;;;;99.63;90.20;;;;;;;;;;5036337;28;20429;-80
2024/03/23 07:29:13;;;;;;;44.95;40.35;;;;;;;;;;5040861;28;20672;-80
2024/03/23 07:31:41;;;;;;;46.60;41.73;;;;;;;;;;5050229;28;20365;-80
2024/03/23 07:34:08;;;;;;;42.30;38.27;;;;;;;;;;5047030;28;20489;-79
2024/03/23 07:36:35;;;;;;;42.43;35.33;;;;;;;;;;5055571;28;20458;-80
2024/03/23 07:39:03;;;;;;;29.33;27.10;;;;;;;;;;5055986;28;20460;-80
2024/03/23 07:41:30;;;;;;;33.13;29.93;;;;;;;;;;5055730;28;20456;-79
2024/03/23 07:43:58;;;;;;;37.83;32.00;;;;;;;;;;5055699;28;20448;-80
2024/03/23 07:46:25;;;;;;;41.93;34.30;;;;;;;;;;5055716;28;20813;-80
2024/03/23 07:48:52;;;;;;;32.00;29.23;;;;;;;;;;5056169;28;20468;-80
2024/03/23 07:51:20;;;;;;;36.73;32.90;;;;;;;;;;5054978;28;21001;-80
2024/03/23 07:53:48;;;;;;;36.87;32.07;;;;;;;;;;5055688;28;20470;-80
2024/03/23 07:56:15;;;;;;;28.33;26.07;;;;;;;;;;5055427;28;20453;-81
2024/03/23 07:58:42;;;;;;;32.27;29.03;;;;;;;;;;5056120;28;20463;-80
2024/03/23 08:01:10;;;;;;;30.23;27.30;;;;;;;;;;5055711;28;20470;-80
2024/03/23 08:03:38;;;;;;;34.03;30.83;;;;;;;;;;5048004;28;20916;-81
2024/03/23 08:06:07;;;;;;;35.97;32.17;;;;;;;;;;5045890;28;20453;-77
2024/03/23 08:08:35;;;;;;;32.30;29.10;;;;;;;;;;5038396;28;20455;-79
2024/03/23 08:11:01;;;;;;;38.63;29.30;;;;;;;;;;5049611;28;20460;-77
2024/03/23 08:13:28;;;;;;;31.83;28.50;;;;;;;;;;5050152;28;20541;-78
2024/03/23 08:15:58;;;;;;;31.53;28.23;;;;;;;;;;5048116;28;20466;-78
2024/03/23 08:18:24;;;;;;;35.17;31.10;;;;;;;;;;5049517;28;20856;-77
2024/03/23 08:20:56;;;;;;;29.03;26.23;;;;;;;;;;5049822;28;20514;-78
2024/03/23 08:23:22;;;;;;;25.80;23.57;;;;;;;;;;5050966;28;20408;-77
2024/03/23 08:25:51;;;;;;;26.83;23.93;;;;;;;;;;5049273;28;20464;-78
2024/03/23 08:28:17;;;;;;;26.87;24.23;;;;;;;;;;5045971;28;20966;-79
2024/03/23 08:30:44;;;;;;;26.63;24.20;;;;;;;;;;5050374;28;20559;-81
2024/03/23 08:33:10;;;;;;;27.47;22.20;;;;;;;;;;5050760;28;20518;-78
2024/03/23 08:35:37;;;;;;;23.83;22.03;;;;;;;;;;5049942;28;20564;-79
2024/03/23 08:38:04;;;;;;;25.63;23.03;;;;;;;;;;5050111;28;20449;-77
2024/03/23 08:40:31;;;;;;;24.77;22.23;;;;;;;;;;5050753;28;20473;-78
2024/03/23 08:42:59;;;;;;;25.27;22.70;;;;;;;;;;5050346;28;20458;-77
2024/03/23 08:45:26;;;;;;;25.13;22.87;;;;;;;;;;5049600;28;20478;-77
2024/03/23 08:47:52;;;;;;;24.27;21.43;;;;;;;;;;5049275;28;20452;-78
2024/03/23 08:50:19;;;;;;;23.60;21.67;;;;;;;;;;5050108;28;20499;-76
2024/03/23 08:52:45;;;;;;;22.07;20.57;;;;;;;;;;5053512;28;20474;-78
2024/03/23 08:55:12;;;;;;;26.13;23.77;;;;;;;;;;5054694;28;21291;-79
2024/03/23 08:57:38;;;;;;;23.83;21.87;;;;;;;;;;5053586;28;20442;-79
2024/03/23 09:00:08;;;;;;;22.43;20.90;;;;;;;;;;5054235;28;20456;-78
2024/03/23 09:02:34;;;;;;;26.33;23.90;;;;;;;;;;5055096;28;20531;-78
2024/03/23 09:05:04;;;;;;;23.63;22.03;;;;;;;;;;5052243;28;20428;-79
2024/03/23 09:07:30;;;;;;;27.40;25.10;;;;;;;;;;5043203;28;20466;-79
2024/03/23 09:09:57;;;;;;;25.70;23.63;;;;;;;;;;5034189;28;20619;-79
2024/03/23 09:12:23;;;;;;;24.37;22.27;;;;;;;;;;5034874;28;20502;-78
2024/03/23 09:14:50;;;;;;;24.73;22.83;;;;;;;;;;5034590;28;20489;-79
2024/03/23 09:17:18;;;;;;;24.10;21.87;;;;;;;;;;5034382;28;20826;-78
2024/03/23 09:19:45;;;;;;;26.17;23.63;;;;;;;;;;5052444;28;20492;-79
2024/03/23 09:22:11;;;;;;;23.93;22.10;;;;;;;;;;5054468;28;20435;-79
2024/03/23 09:24:38;;;;;;;24.20;22.00;;;;;;;;;;5054950;28;20448;-80
2024/03/23 09:27:04;;;;;;;25.07;23.27;;;;;;;;;;5050706;28;20485;-80
2024/03/23 09:29:31;;;;;;;26.07;24.00;;;;;;;;;;5050987;28;20495;-80
2024/03/23 09:31:57;;;;;;;26.00;23.97;;;;;;;;;;5051684;28;20473;-79
2024/03/23 09:34:26;;;;;;;25.70;23.93;;;;;;;;;;5038361;28;20492;-79
2024/03/23 09:36:52;;;;;;;26.30;23.90;;;;;;;;;;5036898;28;20453;-80
2024/03/23 09:39:19;;;;;;;23.37;21.37;;;;;;;;;;5037460;28;20480;-79
2024/03/23 09:41:45;;;;;;;22.67;21.13;;;;;;;;;;5038788;28;20457;-81
2024/03/23 09:44:12;;;;;;;21.10;19.60;;;;;;;;;;5058837;28;20473;-80
2024/03/23 09:46:39;;;;;;;21.00;19.70;;;;;;;;;;5057767;28;20460;-82
2024/03/23 09:49:08;;;;;;;23.37;21.90;;;;;;;;;;5058167;28;20481;-82
2024/03/23 09:51:36;;;;;;;21.90;20.40;;;;;;;;;;5057200;28;20458;-80
2024/03/23 09:54:03;;;;;;;24.00;22.07;;;;;;;;;;5056465;28;20480;-81
2024/03/23 09:56:29;;;;;;;22.20;20.90;;;;;;;;;;5055005;28;20444;-80
2024/03/23 09:59:01;;;;;;;21.77;20.17;;;;;;;;;;5053824;28;20439;-77
2024/03/23 10:01:27;;;;;;;21.30;19.90;;;;;;;;;;5053170;28;20441;-78
2024/03/23 10:03:54;;;;;;;22.97;20.87;;;;;;;;;;5051345;28;20490;-79
2024/03/23 10:06:22;;;;;;;22.13;20.27;;;;;;;;;;5052246;28;20461;-78
2024/03/23 10:08:50;;;;;;;20.50;18.97;;;;;;;;;;5052964;28;20460;-79
2024/03/23 10:11:17;;;;;;;21.93;20.53;;;;;;;;;;5052207;28;20448;-77
2024/03/23 10:13:46;;;;;;;21.07;19.43;;;;;;;;;;5052327;28;20513;-77
2024/03/23 10:16:12;;;;;;;21.90;19.93;;;;;;;;;;5053378;28;20445;-78
2024/03/23 10:18:39;;;;;;;20.70;19.50;;;;;;;;;;5053508;28;20454;-78
2024/03/23 10:21:10;;;;;;;22.03;20.70;;;;;;;;;;5052655;28;20561;-77
2024/03/23 10:23:38;;;;;;;22.10;20.27;;;;;;;;;;5070473;28;20992;-78
2024/03/23 10:26:16;;;;;;;21.90;20.07;;;;;;;;;;5073686;28;21083;-78
2024/03/23 10:28:53;;;;;;;22.47;20.50;;;;;;;;;;5071721;28;20979;-79
2024/03/23 10:31:19;;;;;;;22.57;20.70;;;;;;;;;;5072962;28;20469;-78
2024/03/23 10:33:47;;;;;;;22.10;20.70;;;;;;;;;;5072817;28;20838;-79
2024/03/23 10:36:13;;;;;;;24.97;23.47;;;;;;;;;;5073263;28;20457;-78
2024/03/23 10:38:41;;;;;;;25.03;22.87;;;;;;;;;;5073929;28;21254;-78
2024/03/23 10:41:08;;;;;;;23.27;21.77;;;;;;;;;;5073734;28;20446;-79
2024/03/23 10:43:37;;;;;;;22.10;20.60;;;;;;;;;;5073098;28;20443;-78
2024/03/23 10:46:04;;;;;;;22.30;20.90;;;;;;;;;;5072165;28;20432;-80
2024/03/23 10:48:31;;;;;;;23.67;21.67;;;;;;;;;;5074391;28;20449;-79
2024/03/23 10:50:57;;;;;;;20.97;19.63;;;;;;;;;;5074215;28;20476;-79
2024/03/23 10:53:26;;;;;;;21.50;20.30;;;;;;;;;;5073297;28;20968;-81
2024/03/23 10:55:53;;;;;;;24.13;22.53;;;;;;;;;;5071369;28;21222;-78
2024/03/23 10:58:22;;;;;;;22.63;21.27;;;;;;;;;;5071990;28;20419;-79
2024/03/23 11:00:50;;;;;;;24.33;22.70;;;;;;;;;;5072095;28;20494;-78
2024/03/23 11:03:31;;;;;;;24.00;22.50;;;;;;;;;;5071992;28;20471;-77
2024/03/23 11:05:57;;;;;;;21.10;19.90;;;;;;;;;;5071564;28;20513;-78
2024/03/23 11:08:34;;;;;;;21.97;20.67;;;;;;;;;;5071698;28;20980;-78
2024/03/23 11:11:14;;;;;;;22.10;20.70;;;;;;;;;;5072393;28;20484;-79
2024/03/23 11:13:41;;;;;;;21.70;20.30;;;;;;;;;;5072486;28;20450;-78
2024/03/23 11:16:18;;;;;;;23.53;21.83;;;;;;;;;;5072049;28;20451;-78
2024/03/23 11:18:45;;;;;;;21.63;20.10;;;;;;;;;;5072304;28;20455;-79
2024/03/23 11:21:11;;;;;;;22.47;20.87;;;;;;;;;;5071709;28;20969;-79
2024/03/23 11:23:38;;;;;;;21.63;20.43;;;;;;;;;;5064889;28;20477;-80
2024/03/23 11:26:08;;;;;;;22.23;20.83;;;;;;;;;;5053359;28;20480;-78
2024/03/23 11:28:35;;;;;;;21.00;19.90;;;;;;;;;;5053293;28;20493;-79
2024/03/23 11:31:01;;;;;;;22.17;20.67;;;;;;;;;;5053327;28;20891;-79
2024/03/23 11:33:29;;;;;;;22.97;21.20;;;;;;;;;;5052945;28;20469;-79
2024/03/23 11:35:56;;;;;;;22.80;20.97;;;;;;;;;;5051575;28;20488;-77
2024/03/23 11:38:23;;;;;;;22.30;21.10;;;;;;;;;;5051034;28;20447;-78
2024/03/23 11:40:50;;;;;;;24.50;22.63;;;;;;;;;;5038123;28;20481;-80
2024/03/23 11:43:17;;;;;;;23.67;22.20;;;;;;;;;;5031754;28;20451;-78
2024/03/23 11:45:44;;;;;;;24.17;22.27;;;;;;;;;;5034218;28;20439;-78
2024/03/23 11:48:12;;;;;;;22.40;20.90;;;;;;;;;;5050739;28;20530;-79
2024/03/23 11:50:41;;;;;;;23.90;22.17;;;;;;;;;;5042151;28;20498;-79
2024/03/23 11:53:09;;;;;;;22.63;21.33;;;;;;;;;;5050828;28;20504;-77
2024/03/23 11:55:48;;;;;;;23.63;22.20;;;;;;;;;;5050186;28;20494;-78
2024/03/23 11:58:16;;;;;;;23.93;22.53;;;;;;;;;;5050428;28;20949;-79
2024/03/23 12:00:42;;;;;;;23.03;21.63;;;;;;;;;;5050867;28;20467;-77
2024/03/23 12:03:10;;;;;;;22.80;21.40;;;;;;;;;;5050520;28;20469;-78
2024/03/23 12:05:38;;;;;;;24.20;22.40;;;;;;;;;;5050289;28;21260;-78
2024/03/23 12:08:23;;;;;;;23.40;21.80;;;;;;;;;;5050617;28;20429;-79
2024/03/23 12:10:50;;;;;;;24.17;22.50;;;;;;;;;;5051050;28;21001;-79
2024/03/23 12:13:18;;;;;;;23.37;21.87;;;;;;;;;;5050918;28;20534;-78
2024/03/23 12:15:45;;;;;;;23.67;21.93;;;;;;;;;;5049659;28;21118;-78
2024/03/23 12:18:12;;;;;;;23.30;21.87;;;;;;;;;;5050416;28;20455;-78
2024/03/23 12:20:38;;;;;;;23.50;22.20;;;;;;;;;;5050161;28;20482;-78
2024/03/23 12:23:09;;;;;;;23.00;21.77;;;;;;;;;;5049838;28;20575;-80
2024/03/23 12:25:37;;;;;;;23.23;21.73;;;;;;;;;;5038999;28;21048;-78
2024/03/23 12:28:05;;;;;;;23.10;21.60;;;;;;;;;;5044399;28;20568;-77
2024/03/23 12:30:32;;;;;;;21.40;20.20;;;;;;;;;;5041152;28;20450;-79
2024/03/23 12:32:59;;;;;;;22.43;21.03;;;;;;;;;;5054832;28;20512;-79
2024/03/23 12:35:25;;;;;;;21.77;20.57;;;;;;;;;;5055805;28;20459;-78
2024/03/23 12:37:52;;;;;;;21.77;20.47;;;;;;;;;;5053996;28;20451;-78
2024/03/23 12:40:18;;;;;;;21.90;20.70;;;;;;;;;;5047150;28;20486;-78
2024/03/23 12:42:46;;;;;;;21.63;20.43;;;;;;;;;;5054179;28;20551;-78
2024/03/23 12:45:12;;;;;;;22.37;21.17;;;;;;;;;;5054680;28;20416;-78
2024/03/23 12:47:39;;;;;;;23.07;21.67;;;;;;;;;;5053701;28;20440;-78
2024/03/23 12:50:06;;;;;;;21.60;20.30;;;;;;;;;;5048907;28;20975;-78
2024/03/23 12:52:33;;;;;;;23.50;21.90;;;;;;;;;;5045067;28;20512;-78
2024/03/23 12:54:59;;;;;;;22.37;21.07;;;;;;;;;;5044072;28;21000;-79
2024/03/23 12:57:26;;;;;;;22.30;20.53;;;;;;;;;;5048714;28;20458;-77
2024/03/23 12:59:54;;;;;;;22.50;20.73;;;;;;;;;;5049484;28;20577;-78
2024/03/23 13:02:22;;;;;;;21.17;19.83;;;;;;;;;;5053996;28;21225;-79
2024/03/23 13:04:50;;;;;;;21.40;20.10;;;;;;;;;;5046241;28;20457;-78
2024/03/23 13:07:17;;;;;;;21.03;19.67;;;;;;;;;;5040449;28;20453;-79
2024/03/23 13:09:43;;;;;;;22.57;20.80;;;;;;;;;;5051370;28;20496;-77
2024/03/23 13:12:11;;;;;;;21.87;20.57;;;;;;;;;;5052905;28;20530;-78
2024/03/23 13:14:39;;;;;;;21.83;20.50;;;;;;;;;;5053876;28;20923;-79
2024/03/23 13:17:07;;;;;;;23.20;21.80;;;;;;;;;;5053873;28;20806;-78
2024/03/23 13:19:33;;;;;;;21.90;20.47;;;;;;;;;;5053444;28;20526;-78
2024/03/23 13:22:01;;;;;;;22.17;20.70;;;;;;;;;;5053916;28;20461;-78
2024/03/23 13:24:27;;;;;;;23.67;21.93;;;;;;;;;;5053837;28;20991;-78
2024/03/23 13:26:55;;;;;;;22.33;20.80;;;;;;;;;;5053432;28;20457;-79
2024/03/23 13:29:22;;;;;;;22.70;21.30;;;;;;;;;;5053534;28;20470;-79
2024/03/23 13:31:49;;;;;;;21.47;20.37;;;;;;;;;;5053955;28;20474;-78
2024/03/23 13:34:16;;;;;;;22.83;21.33;;;;;;;;;;5054194;28;20523;-78
2024/03/23 13:36:43;;;;;;;22.63;21.30;;;;;;;;;;5053355;28;20485;-78
2024/03/23 13:39:10;;;;;;;23.47;21.47;;;;;;;;;;5053909;28;20452;-79
2024/03/23 13:41:38;;;;;;;21.97;20.77;;;;;;;;;;5053468;28;20465;-79
2024/03/23 13:44:04;;;;;;;21.93;20.73;;;;;;;;;;5054145;28;20578;-78
2024/03/23 13:46:31;;;;;;;23.40;22.10;;;;;;;;;;5053643;28;20476;-80
2024/03/23 13:48:57;;;;;;;24.40;23.10;;;;;;;;;;5053888;28;20455;-79
2024/03/23 13:51:27;;;;;;;22.53;21.13;;;;;;;;;;5053591;28;20811;-78
2024/03/23 13:53:54;;;;;;;22.80;21.27;;;;;;;;;;5053871;28;20449;-78
2024/03/23 13:56:21;;;;;;;21.40;20.20;;;;;;;;;;5053789;28;20469;-78
2024/03/23 13:58:48;;;;;;;21.13;19.93;;;;;;;;;;5053646;28;20464;-79
2024/03/23 14:01:16;;;;;;;21.27;20.03;;;;;;;;;;5039494;28;20482;-77
2024/03/23 14:03:42;;;;;;;22.00;20.87;;;;;;;;;;5033329;28;21005;-80
2024/03/23 14:06:09;;;;;;;21.37;20.27;;;;;;;;;;5033389;28;20480;-79
2024/03/23 14:08:39;;;;;;;20.87;19.77;;;;;;;;;;5033580;28;20481;-78
2024/03/23 14:11:06;;;;;;;21.77;20.50;;;;;;;;;;5032757;28;20518;-79
2024/03/23 14:13:33;;;;;;;20.50;19.20;;;;;;;;;;5033615;28;20835;-78
2024/03/23 14:16:00;;;;;;;20.37;19.27;;;;;;;;;;5033071;28;20846;-78
2024/03/23 14:18:26;;;;;;;21.60;20.30;;;;;;;;;;5033602;28;20468;-79